sensor_id;sensor_type;location;lat;lon;timestamp;pressure;altitude;pressure_sealevel;temperature;humidity
20624;BME280;10471;42.736;23.346;2022-08-01T00:00:08;95466.06;;;17.23;100.00
20624;BME280;10471;42.736;23.346;2022-08-01T00:02:34;95463.38;;;17.23;100.00
20624;BME280;10471;42.736;23.346;2022-08-01T00:05:00;95473.25;;;17.23;100.00
20624;BME280;10471;42.736;23.346;2022-08-01T00:07:25;95468.88;;;17.18;100.00
20624;BME280;10471;42.736;23.346;2022-08-01T00:09:51;95463.69;;;17.13;100.00
20624;BME280;10471;42.736;23.346;2022-08-01T00:12:17;95471.06;;;17.16;100.00
20624;BME280;10471;42.736;23.346;2022-08-01T00:14:42;95468.22;;;17.21;100.00
20624;BME280;10471;42.736;23.346;2022-08-01T00:17:07;95471.06;;;17.25;100.00
20624;BME280;10471;42.736;23.346;2022-08-01T00:19:33;95478.75;;;17.26;100.00
20624;BME280;10471;42.736;23.346;2022-08-01T00:21:58;95466.81;;;17.15;100.00
20624;BME280;10471;42.736;23.346;2022-08-01T00:24:24;95458.81;;;17.15;100.00
20624;BME280;10471;42.736;23.346;2022-08-01T00:26:49;95466.81;;;17.15;100.00
20624;BME280;10471;42.736;23.346;2022-08-01T00:29:14;95457.09;;;17.19;100.00
20624;BME280;10471;42.736;23.346;2022-08-01T00:31:40;95465.25;;;17.14;100.00
20624;BME280;10471;42.736;23.346;2022-08-01T00:34:05;95463.38;;;17.07;100.00
20624;BME280;10471;42.736;23.346;2022-08-01T00:36:31;95460.06;;;17.09;100.00
20624;BME280;10471;42.736;23.346;2022-08-01T00:38:56;95466.97;;;17.10;100.00
20624;BME280;10471;42.736;23.346;2022-08-01T00:41:22;95453.66;;;17.10;100.00
20624;BME280;10471;42.736;23.346;2022-08-01T00:43:47;95457.41;;;17.09;100.00
20624;BME280;10471;42.736;23.346;2022-08-01T00:46:12;95450.97;;;17.02;100.00
20624;BME280;10471;42.736;23.346;2022-08-01T00:48:38;95453.34;;;16.95;100.00
20624;BME280;10471;42.736;23.346;2022-08-01T00:51:04;95440.19;;;16.82;100.00
20624;BME280;10471;42.736;23.346;2022-08-01T00:53:30;95451.91;;;16.72;100.00
20624;BME280;10471;42.736;23.346;2022-08-01T00:55:56;95449.72;;;16.66;100.00
20624;BME280;10471;42.736;23.346;2022-08-01T00:58:22;95448.28;;;16.60;100.00
20624;BME280;10471;42.736;23.346;2022-08-01T01:00:48;95442.63;;;16.53;100.00
20624;BME280;10471;42.736;23.346;2022-08-01T01:03:14;95433.53;;;16.54;100.00
20624;BME280;10471;42.736;23.346;2022-08-01T01:05:56;95434.63;;;16.53;100.00
20624;BME280;10471;42.736;23.346;2022-08-01T01:08:32;95430.25;;;16.48;100.00
20624;BME280;10471;42.736;23.346;2022-08-01T01:11:09;95429.78;;;16.55;100.00
20624;BME280;10471;42.736;23.346;2022-08-01T01:13:41;95432.16;;;16.56;100.00
20624;BME280;10471;42.736;23.346;2022-08-01T01:16:13;95427.59;;;16.57;100.00
20624;BME280;10471;42.736;23.346;2022-08-01T01:18:47;95427.00;;;16.60;100.00
20624;BME280;10471;42.736;23.346;2022-08-01T01:27:21;95422.13;;;16.53;100.00
20624;BME280;10471;42.736;23.346;2022-08-01T01:29:54;95421.78;;;16.46;100.00
20624;BME280;10471;42.736;23.346;2022-08-01T01:32:33;95420.22;;;16.45;100.00
20624;BME280;10471;42.736;23.346;2022-08-01T01:35:04;95418.22;;;16.51;100.00
20624;BME280;10471;42.736;23.346;2022-08-01T01:37:31;95415.84;;;16.58;100.00
20624;BME280;10471;42.736;23.346;2022-08-01T01:39:59;95413.38;;;16.61;100.00
20624;BME280;10471;42.736;23.346;2022-08-01T01:42:26;95414.78;;;16.59;100.00
20624;BME280;10471;42.736;23.346;2022-08-01T01:44:52;95411.78;;;16.60;100.00
20624;BME280;10471;42.736;23.346;2022-08-01T01:47:20;95411.47;;;16.62;100.00
20624;BME280;10471;42.736;23.346;2022-08-01T01:49:47;95398.97;;;16.62;100.00
20624;BME280;10471;42.736;23.346;2022-08-01T01:52:16;95406.63;;;16.64;100.00
20624;BME280;10471;42.736;23.346;2022-08-01T01:54:46;95401.00;;;16.65;100.00
20624;BME280;10471;42.736;23.346;2022-08-01T01:57:14;95398.16;;;16.62;100.00
20624;BME280;10471;42.736;23.346;2022-08-01T01:59:40;95401.78;;;16.57;100.00
20624;BME280;10471;42.736;23.346;2022-08-01T02:02:07;95394.56;;;16.49;100.00
20624;BME280;10471;42.736;23.346;2022-08-01T02:04:35;95401.56;;;16.37;100.00
20624;BME280;10471;42.736;23.346;2022-08-01T02:07:02;95406.59;;;16.30;100.00
20624;BME280;10471;42.736;23.346;2022-08-01T02:09:28;95404.47;;;16.19;100.00
20624;BME280;10471;42.736;23.346;2022-08-01T02:11:55;95411.63;;;16.10;100.00
20624;BME280;10471;42.736;23.346;2022-08-01T02:14:22;95406.28;;;16.01;100.00
20624;BME280;10471;42.736;23.346;2022-08-01T02:16:49;95397.03;;;15.90;100.00
20624;BME280;10471;42.736;23.346;2022-08-01T02:19:17;95401.22;;;15.83;100.00
20624;BME280;10471;42.736;23.346;2022-08-01T02:27:06;95405.31;;;15.59;100.00
20624;BME280;10471;42.736;23.346;2022-08-01T02:29:42;95395.13;;;15.52;100.00
20624;BME280;10471;42.736;23.346;2022-08-01T02:32:12;95398.88;;;15.51;100.00
20624;BME280;10471;42.736;23.346;2022-08-01T02:34:41;95404.63;;;15.45;100.00
20624;BME280;10471;42.736;23.346;2022-08-01T02:37:08;95400.94;;;15.32;100.00
20624;BME280;10471;42.736;23.346;2022-08-01T02:39:36;95401.72;;;15.33;100.00
20624;BME280;10471;42.736;23.346;2022-08-01T02:42:05;95408.28;;;15.27;100.00
20624;BME280;10471;42.736;23.346;2022-08-01T02:44:33;95413.59;;;15.27;100.00
20624;BME280;10471;42.736;23.346;2022-08-01T02:47:02;95405.13;;;15.25;100.00
20624;BME280;10471;42.736;23.346;2022-08-01T02:49:32;95405.50;;;15.32;100.00
20624;BME280;10471;42.736;23.346;2022-08-01T02:52:00;95403.28;;;15.34;100.00
20624;BME280;10471;42.736;23.346;2022-08-01T02:54:27;95399.56;;;15.35;100.00
20624;BME280;10471;42.736;23.346;2022-08-01T02:56:55;95393.63;;;15.38;100.00
20624;BME280;10471;42.736;23.346;2022-08-01T02:59:23;95393.81;;;15.41;100.00
20624;BME280;10471;42.736;23.346;2022-08-01T03:01:56;95395.50;;;15.37;100.00
20624;BME280;10471;42.736;23.346;2022-08-01T03:04:25;95398.81;;;15.43;100.00
20624;BME280;10471;42.736;23.346;2022-08-01T03:06:55;95399.13;;;15.41;100.00
20624;BME280;10471;42.736;23.346;2022-08-01T03:09:25;95403.66;;;15.41;100.00
20624;BME280;10471;42.736;23.346;2022-08-01T03:11:52;95396.91;;;15.35;100.00
20624;BME280;10471;42.736;23.346;2022-08-01T03:14:18;95395.81;;;15.36;100.00
20624;BME280;10471;42.736;23.346;2022-08-01T03:16:46;95394.25;;;15.35;100.00
20624;BME280;10471;42.736;23.346;2022-08-01T03:19:13;95397.03;;;15.30;100.00
20624;BME280;10471;42.736;23.346;2022-08-01T03:21:39;95397.03;;;15.30;100.00
20624;BME280;10471;42.736;23.346;2022-08-01T03:24:07;95388.56;;;15.28;100.00
20624;BME280;10471;42.736;23.346;2022-08-01T03:26:35;95392.81;;;15.29;100.00
20624;BME280;10471;42.736;23.346;2022-08-01T03:29:12;95394.31;;;15.21;100.00
20624;BME280;10471;42.736;23.346;2022-08-01T03:31:40;95394.81;;;15.23;100.00
20624;BME280;10471;42.736;23.346;2022-08-01T03:34:09;95398.25;;;15.24;100.00
20624;BME280;10471;42.736;23.346;2022-08-01T03:36:42;95397.03;;;15.30;100.00
20624;BME280;10471;42.736;23.346;2022-08-01T03:39:28;95398.59;;;15.31;100.00
20624;BME280;10471;42.736;23.346;2022-08-01T03:41:58;95408.91;;;15.32;100.00
20624;BME280;10471;42.736;23.346;2022-08-01T03:44:29;95406.25;;;15.32;100.00
20624;BME280;10471;42.736;23.346;2022-08-01T03:47:00;95418.28;;;15.30;100.00
20624;BME280;10471;42.736;23.346;2022-08-01T03:49:30;95413.28;;;15.28;100.00
20624;BME280;10471;42.736;23.346;2022-08-01T03:52:04;95419.06;;;15.17;100.00
20624;BME280;10471;42.736;23.346;2022-08-01T03:54:32;95413.75;;;15.17;100.00
20624;BME280;10471;42.736;23.346;2022-08-01T03:57:02;95417.53;;;15.16;100.00
20624;BME280;10471;42.736;23.346;2022-08-01T03:59:29;95413.13;;;15.11;100.00
20624;BME280;10471;42.736;23.346;2022-08-01T04:01:55;95408.47;;;15.17;100.00
20624;BME280;10471;42.736;23.346;2022-08-01T04:04:21;95404.25;;;15.16;100.00
20624;BME280;10471;42.736;23.346;2022-08-01T04:06:47;95414.16;;;15.24;100.00
20624;BME280;10471;42.736;23.346;2022-08-01T04:09:16;95407.59;;;15.21;100.00
20624;BME280;10471;42.736;23.346;2022-08-01T04:11:41;95412.19;;;15.29;100.00
20624;BME280;10471;42.736;23.346;2022-08-01T04:14:07;95419.22;;;15.34;100.00
20624;BME280;10471;42.736;23.346;2022-08-01T04:16:33;95418.50;;;15.42;100.00
20624;BME280;10471;42.736;23.346;2022-08-01T04:18:59;95420.91;;;15.52;100.00
20624;BME280;10471;42.736;23.346;2022-08-01T04:21:26;95427.06;;;15.61;100.00
20624;BME280;10471;42.736;23.346;2022-08-01T04:23:54;95418.81;;;15.71;100.00
20624;BME280;10471;42.736;23.346;2022-08-01T04:26:21;95419.13;;;15.69;100.00
20624;BME280;10471;42.736;23.346;2022-08-01T04:28:47;95413.69;;;15.74;100.00
20624;BME280;10471;42.736;23.346;2022-08-01T04:31:16;95412.16;;;15.81;100.00
20624;BME280;10471;42.736;23.346;2022-08-01T04:33:46;95425.34;;;15.95;100.00
20624;BME280;10471;42.736;23.346;2022-08-01T04:36:14;95428.69;;;16.09;100.00
20624;BME280;10471;42.736;23.346;2022-08-01T04:38:42;95423.09;;;16.19;100.00
20624;BME280;10471;42.736;23.346;2022-08-01T04:41:12;95425.66;;;16.32;100.00
20624;BME280;10471;42.736;23.346;2022-08-01T04:43:38;95415.97;;;16.36;100.00
20624;BME280;10471;42.736;23.346;2022-08-01T04:46:05;95418.50;;;16.41;100.00
20624;BME280;10471;42.736;23.346;2022-08-01T04:48:32;95419.63;;;16.48;100.00
20624;BME280;10471;42.736;23.346;2022-08-01T04:51:00;95416.69;;;16.67;100.00
20624;BME280;10471;42.736;23.346;2022-08-01T04:53:25;95428.72;;;16.81;100.00
20624;BME280;10471;42.736;23.346;2022-08-01T04:55:52;95433.28;;;16.89;100.00
20624;BME280;10471;42.736;23.346;2022-08-01T04:58:18;95427.66;;;16.99;100.00
20624;BME280;10471;42.736;23.346;2022-08-01T05:00:43;95427.66;;;17.08;100.00
20624;BME280;10471;42.736;23.346;2022-08-01T05:03:08;95417.78;;;17.16;100.00
20624;BME280;10471;42.736;23.346;2022-08-01T05:05:34;95415.44;;;17.23;100.00
20624;BME280;10471;42.736;23.346;2022-08-01T05:08:00;95412.00;;;17.31;100.00
20624;BME280;10471;42.736;23.346;2022-08-01T05:10:25;95404.16;;;17.43;100.00
20624;BME280;10471;42.736;23.346;2022-08-01T05:12:51;95408.66;;;17.51;100.00
20624;BME280;10471;42.736;23.346;2022-08-01T05:15:16;95411.81;;;17.53;100.00
20624;BME280;10471;42.736;23.346;2022-08-01T05:17:42;95401.91;;;17.62;100.00
20624;BME280;10471;42.736;23.346;2022-08-01T05:20:08;95405.31;;;17.71;100.00
20624;BME280;10471;42.736;23.346;2022-08-01T05:22:33;95405.44;;;17.83;100.00
20624;BME280;10471;42.736;23.346;2022-08-01T05:24:59;95405.25;;;17.96;100.00
20624;BME280;10471;42.736;23.346;2022-08-01T05:27:25;95401.44;;;18.06;100.00
20624;BME280;10471;42.736;23.346;2022-08-01T05:29:51;95402.66;;;18.17;100.00
20624;BME280;10471;42.736;23.346;2022-08-01T05:32:16;95405.25;;;18.34;100.00
20624;BME280;10471;42.736;23.346;2022-08-01T05:34:42;95406.13;;;18.46;100.00
20624;BME280;10471;42.736;23.346;2022-08-01T05:37:07;95416.88;;;18.58;100.00
20624;BME280;10471;42.736;23.346;2022-08-01T05:39:33;95404.22;;;18.75;99.93
20624;BME280;10471;42.736;23.346;2022-08-01T05:41:58;95407.09;;;18.91;96.89
20624;BME280;10471;42.736;23.346;2022-08-01T05:44:24;95409.84;;;19.03;93.86
20624;BME280;10471;42.736;23.346;2022-08-01T05:46:50;95408.94;;;19.19;90.05
20624;BME280;10471;42.736;23.346;2022-08-01T05:49:16;95400.66;;;19.32;89.04
20624;BME280;10471;42.736;23.346;2022-08-01T05:51:41;95402.56;;;19.44;90.90
20624;BME280;10471;42.736;23.346;2022-08-01T05:54:07;95401.25;;;19.50;85.74
20624;BME280;10471;42.736;23.346;2022-08-01T05:56:32;95408.19;;;19.51;83.34
20624;BME280;10471;42.736;23.346;2022-08-01T05:58:58;95417.56;;;19.69;87.09
20624;BME280;10471;42.736;23.346;2022-08-01T06:01:23;95412.72;;;19.82;83.51
20624;BME280;10471;42.736;23.346;2022-08-01T06:03:49;95416.75;;;19.88;81.08
20624;BME280;10471;42.736;23.346;2022-08-01T06:06:14;95412.75;;;19.94;79.86
20624;BME280;10471;42.736;23.346;2022-08-01T06:08:40;95409.00;;;20.07;77.59
20624;BME280;10471;42.736;23.346;2022-08-01T06:11:06;95408.13;;;20.27;76.55
20624;BME280;10471;42.736;23.346;2022-08-01T06:13:32;95400.31;;;20.34;71.78
20624;BME280;10471;42.736;23.346;2022-08-01T06:15:57;95401.31;;;20.42;72.46
20624;BME280;10471;42.736;23.346;2022-08-01T06:18:23;95411.34;;;20.56;71.52
20624;BME280;10471;42.736;23.346;2022-08-01T06:20:48;95410.78;;;20.63;69.74
20624;BME280;10471;42.736;23.346;2022-08-01T06:23:14;95408.69;;;20.68;65.03
20624;BME280;10471;42.736;23.346;2022-08-01T06:25:42;95412.56;;;20.71;65.03
20624;BME280;10471;42.736;23.346;2022-08-01T06:28:08;95403.53;;;20.75;63.46
20624;BME280;10471;42.736;23.346;2022-08-01T06:30:33;95415.69;;;20.85;63.89
20624;BME280;10471;42.736;23.346;2022-08-01T06:32:59;95403.19;;;20.89;63.83
20624;BME280;10471;42.736;23.346;2022-08-01T06:35:26;95402.72;;;20.99;62.26
20624;BME280;10471;42.736;23.346;2022-08-01T06:37:52;95392.91;;;21.03;61.07
20624;BME280;10471;42.736;23.346;2022-08-01T06:40:17;95391.31;;;21.02;60.46
20624;BME280;10471;42.736;23.346;2022-08-01T06:42:43;95381.47;;;21.06;61.77
20624;BME280;10471;42.736;23.346;2022-08-01T06:45:11;95388.09;;;21.23;63.73
20624;BME280;10471;42.736;23.346;2022-08-01T06:47:38;95378.16;;;21.51;62.88
20624;BME280;10471;42.736;23.346;2022-08-01T06:50:05;95382.88;;;21.54;59.91
20624;BME280;10471;42.736;23.346;2022-08-01T06:52:31;95380.03;;;21.63;59.84
20624;BME280;10471;42.736;23.346;2022-08-01T06:54:56;95376.22;;;21.64;59.50
20624;BME280;10471;42.736;23.346;2022-08-01T06:57:21;95370.75;;;21.60;59.05
20624;BME280;10471;42.736;23.346;2022-08-01T06:59:47;95364.63;;;21.60;59.36
20624;BME280;10471;42.736;23.346;2022-08-01T07:02:13;95355.72;;;21.71;57.83
20624;BME280;10471;42.736;23.346;2022-08-01T07:04:38;95370.09;;;21.78;56.92
20624;BME280;10471;42.736;23.346;2022-08-01T07:07:03;95363.00;;;21.86;56.47
20624;BME280;10471;42.736;23.346;2022-08-01T07:09:29;95361.72;;;21.95;56.63
20624;BME280;10471;42.736;23.346;2022-08-01T07:11:55;95357.63;;;22.17;58.25
20624;BME280;10471;42.736;23.346;2022-08-01T07:14:22;95366.13;;;22.19;56.08
20624;BME280;10471;42.736;23.346;2022-08-01T07:16:48;95373.06;;;22.20;56.80
20624;BME280;10471;42.736;23.346;2022-08-01T07:19:14;95365.19;;;22.11;55.47
20624;BME280;10471;42.736;23.346;2022-08-01T07:21:39;95362.31;;;22.20;55.24
20624;BME280;10471;42.736;23.346;2022-08-01T07:24:10;95373.25;;;22.27;55.02
20624;BME280;10471;42.736;23.346;2022-08-01T07:26:35;95371.69;;;22.26;55.35
20624;BME280;10471;42.736;23.346;2022-08-01T07:29:00;95372.03;;;22.40;55.74
20624;BME280;10471;42.736;23.346;2022-08-01T07:31:26;95372.53;;;22.60;55.99
20624;BME280;10471;42.736;23.346;2022-08-01T07:33:51;95368.63;;;22.58;53.79
20624;BME280;10471;42.736;23.346;2022-08-01T07:36:17;95373.44;;;22.68;55.33
20624;BME280;10471;42.736;23.346;2022-08-01T07:38:43;95364.47;;;22.79;56.52
20624;BME280;10471;42.736;23.346;2022-08-01T07:41:09;95366.13;;;22.84;55.13
20624;BME280;10471;42.736;23.346;2022-08-01T07:43:34;95362.22;;;22.81;54.81
20624;BME280;10471;42.736;23.346;2022-08-01T07:46:02;95364.72;;;22.90;55.20
20624;BME280;10471;42.736;23.346;2022-08-01T07:48:27;95362.88;;;23.09;56.74
20624;BME280;10471;42.736;23.346;2022-08-01T07:50:53;95371.78;;;23.13;54.47
20624;BME280;10471;42.736;23.346;2022-08-01T07:53:18;95360.47;;;23.04;55.15
20624;BME280;10471;42.736;23.346;2022-08-01T07:55:43;95349.09;;;22.95;55.76
20624;BME280;10471;42.736;23.346;2022-08-01T07:58:09;95366.53;;;23.01;55.57
20624;BME280;10471;42.736;23.346;2022-08-01T08:00:34;95363.28;;;23.11;53.37
20624;BME280;10471;42.736;23.346;2022-08-01T08:03:00;95373.47;;;23.02;51.82
20624;BME280;10471;42.736;23.346;2022-08-01T08:05:28;95365.16;;;22.92;51.41
20624;BME280;10471;42.736;23.346;2022-08-01T08:07:54;95369.38;;;23.08;51.04
20624;BME280;10471;42.736;23.346;2022-08-01T08:10:19;95375.03;;;23.22;52.42
20624;BME280;10471;42.736;23.346;2022-08-01T08:12:45;95374.97;;;23.18;50.25
20624;BME280;10471;42.736;23.346;2022-08-01T08:15:12;95368.69;;;23.30;50.18
20624;BME280;10471;42.736;23.346;2022-08-01T08:17:38;95390.59;;;23.32;49.85
20624;BME280;10471;42.736;23.346;2022-08-01T08:20:07;95366.97;;;23.41;49.91
20624;BME280;10471;42.736;23.346;2022-08-01T08:22:33;95358.91;;;23.41;49.54
20624;BME280;10471;42.736;23.346;2022-08-01T08:24:59;95375.25;;;23.51;50.35
20624;BME280;10471;42.736;23.346;2022-08-01T08:27:24;95373.09;;;23.60;49.90
20624;BME280;10471;42.736;23.346;2022-08-01T08:29:50;95359.31;;;23.62;49.10
20624;BME280;10471;42.736;23.346;2022-08-01T08:32:16;95344.28;;;23.42;47.52
20624;BME280;10471;42.736;23.346;2022-08-01T08:34:41;95353.63;;;23.48;47.56
20624;BME280;10471;42.736;23.346;2022-08-01T08:37:07;95363.19;;;23.64;48.31
20624;BME280;10471;42.736;23.346;2022-08-01T08:39:32;95362.31;;;23.60;48.42
20624;BME280;10471;42.736;23.346;2022-08-01T08:42:04;95363.13;;;23.61;47.49
20624;BME280;10471;42.736;23.346;2022-08-01T08:44:31;95360.72;;;23.75;47.60
20624;BME280;10471;42.736;23.346;2022-08-01T08:46:57;95356.47;;;23.74;47.18
20624;BME280;10471;42.736;23.346;2022-08-01T08:49:26;95355.03;;;23.79;47.32
20624;BME280;10471;42.736;23.346;2022-08-01T08:51:52;95351.63;;;23.82;46.23
20624;BME280;10471;42.736;23.346;2022-08-01T08:54:20;95358.09;;;24.00;46.52
20624;BME280;10471;42.736;23.346;2022-08-01T08:56:47;95358.56;;;23.83;46.70
20624;BME280;10471;42.736;23.346;2022-08-01T08:59:14;95349.88;;;23.93;47.70
20624;BME280;10471;42.736;23.346;2022-08-01T09:01:40;95343.78;;;23.96;46.82
20624;BME280;10471;42.736;23.346;2022-08-01T09:04:06;95344.06;;;24.14;46.39
20624;BME280;10471;42.736;23.346;2022-08-01T09:06:33;95332.41;;;24.06;46.86
20624;BME280;10471;42.736;23.346;2022-08-01T09:08:59;95335.00;;;24.25;47.43
20624;BME280;10471;42.736;23.346;2022-08-01T09:11:24;95333.56;;;24.31;46.85
20624;BME280;10471;42.736;23.346;2022-08-01T09:14:10;95341.50;;;24.43;46.44
20624;BME280;10471;42.736;23.346;2022-08-01T09:16:39;95345.72;;;24.22;46.12
20624;BME280;10471;42.736;23.346;2022-08-01T09:19:19;95336.31;;;24.35;46.92
20624;BME280;10471;42.736;23.346;2022-08-01T09:22:12;95325.03;;;24.26;46.21
20624;BME280;10471;42.736;23.346;2022-08-01T09:24:38;95334.38;;;24.32;46.22
20624;BME280;10471;42.736;23.346;2022-08-01T09:27:19;95340.38;;;24.44;47.19
20624;BME280;10471;42.736;23.346;2022-08-01T09:29:45;95332.28;;;24.44;45.53
20624;BME280;10471;42.736;23.346;2022-08-01T09:32:10;95333.59;;;24.57;45.37
20624;BME280;10471;42.736;23.346;2022-08-01T09:34:36;95314.06;;;24.63;45.51
20624;BME280;10471;42.736;23.346;2022-08-01T09:37:02;95326.94;;;24.77;45.27
20624;BME280;10471;42.736;23.346;2022-08-01T09:39:29;95319.13;;;24.98;45.71
20624;BME280;10471;42.736;23.346;2022-08-01T09:41:57;95329.75;;;24.84;44.11
20624;BME280;10471;42.736;23.346;2022-08-01T09:44:39;95325.53;;;24.57;44.01
20624;BME280;10471;42.736;23.346;2022-08-01T09:47:05;95332.34;;;24.77;45.24
20624;BME280;10471;42.736;23.346;2022-08-01T09:49:33;95346.34;;;24.86;44.52
20624;BME280;10471;42.736;23.346;2022-08-01T09:52:10;95343.44;;;24.72;43.48
20624;BME280;10471;42.736;23.346;2022-08-01T09:54:36;95342.88;;;24.85;44.31
20624;BME280;10471;42.736;23.346;2022-08-01T09:57:16;95340.66;;;24.91;43.75
20624;BME280;10471;42.736;23.346;2022-08-01T09:59:48;95328.78;;;24.99;45.60
20624;BME280;10471;42.736;23.346;2022-08-01T10:02:35;95335.56;;;25.12;44.11
20624;BME280;10471;42.736;23.346;2022-08-01T10:05:03;95335.22;;;25.16;43.03
20624;BME280;10471;42.736;23.346;2022-08-01T10:07:29;95332.78;;;25.37;45.32
20624;BME280;10471;42.736;23.346;2022-08-01T10:09:54;95331.59;;;25.06;45.08
20624;BME280;10471;42.736;23.346;2022-08-01T10:12:21;95325.25;;;25.20;46.25
20624;BME280;10471;42.736;23.346;2022-08-01T10:14:49;95325.72;;;25.29;45.05
20624;BME280;10471;42.736;23.346;2022-08-01T10:17:16;95321.72;;;25.16;46.94
20624;BME280;10471;42.736;23.346;2022-08-01T10:19:43;95326.28;;;25.13;46.51
20624;BME280;10471;42.736;23.346;2022-08-01T10:22:11;95329.22;;;25.01;46.98
20624;BME280;10471;42.736;23.346;2022-08-01T10:24:41;95327.91;;;24.62;45.85
20624;BME280;10471;42.736;23.346;2022-08-01T10:27:09;95321.56;;;24.77;46.43
20624;BME280;10471;42.736;23.346;2022-08-01T10:29:56;95317.84;;;25.14;44.97
20624;BME280;10471;42.736;23.346;2022-08-01T10:32:23;95304.75;;;25.16;44.62
20624;BME280;10471;42.736;23.346;2022-08-01T10:34:52;95307.31;;;25.38;43.54
20624;BME280;10471;42.736;23.346;2022-08-01T10:37:18;95296.47;;;25.71;44.47
20624;BME280;10471;42.736;23.346;2022-08-01T10:39:44;95298.25;;;25.93;43.79
20624;BME280;10471;42.736;23.346;2022-08-01T10:42:11;95289.88;;;26.08;43.93
20624;BME280;10471;42.736;23.346;2022-08-01T10:44:37;95291.97;;;26.29;44.01
20624;BME280;10471;42.736;23.346;2022-08-01T10:47:12;95285.06;;;26.35;43.59
20624;BME280;10471;42.736;23.346;2022-08-01T10:52:26;95274.34;;;25.95;44.13
20624;BME280;10471;42.736;23.346;2022-08-01T10:55:04;95290.25;;;26.07;45.26
20624;BME280;10471;42.736;23.346;2022-08-01T10:57:46;95278.81;;;26.24;43.31
20624;BME280;10471;42.736;23.346;2022-08-01T11:00:21;95281.72;;;26.01;43.96
20624;BME280;10471;42.736;23.346;2022-08-01T11:03:02;95289.44;;;26.03;43.70
20624;BME280;10471;42.736;23.346;2022-08-01T11:05:32;95291.19;;;26.28;45.09
20624;BME280;10471;42.736;23.346;2022-08-01T11:08:03;95284.31;;;26.38;44.75
20624;BME280;10471;42.736;23.346;2022-08-01T11:10:39;95282.06;;;26.43;42.64
20624;BME280;10471;42.736;23.346;2022-08-01T11:13:05;95282.88;;;26.50;43.37
20624;BME280;10471;42.736;23.346;2022-08-01T11:15:36;95283.63;;;26.51;43.78
20624;BME280;10471;42.736;23.346;2022-08-01T11:18:28;95284.81;;;26.53;43.09
20624;BME280;10471;42.736;23.346;2022-08-01T11:21:00;95272.97;;;26.75;43.90
20624;BME280;10471;42.736;23.346;2022-08-01T11:23:27;95279.34;;;27.11;44.01
20624;BME280;10471;42.736;23.346;2022-08-01T11:28:21;95274.97;;;26.92;42.61
20624;BME280;10471;42.736;23.346;2022-08-01T11:33:18;95259.88;;;26.88;43.13
20624;BME280;10471;42.736;23.346;2022-08-01T11:41:20;95267.00;;;27.17;41.82
20624;BME280;10471;42.736;23.346;2022-08-01T11:44:15;95256.22;;;27.41;42.41
20624;BME280;10471;42.736;23.346;2022-08-01T11:54:30;95250.69;;;27.03;42.42
20624;BME280;10471;42.736;23.346;2022-08-01T11:56:58;95257.72;;;27.21;41.49
20624;BME280;10471;42.736;23.346;2022-08-01T11:59:24;95253.13;;;27.35;41.91
20624;BME280;10471;42.736;23.346;2022-08-01T12:01:50;95253.94;;;27.50;42.14
20624;BME280;10471;42.736;23.346;2022-08-01T12:04:15;95254.69;;;27.54;42.14
20624;BME280;10471;42.736;23.346;2022-08-01T12:06:41;95269.06;;;27.61;41.76
20624;BME280;10471;42.736;23.346;2022-08-01T12:09:20;95265.97;;;27.63;40.71
20624;BME280;10471;42.736;23.346;2022-08-01T12:11:46;95255.53;;;27.68;41.91
20624;BME280;10471;42.736;23.346;2022-08-01T12:14:19;95250.88;;;27.76;41.42
20624;BME280;10471;42.736;23.346;2022-08-01T12:16:52;95255.53;;;27.68;41.06
20624;BME280;10471;42.736;23.346;2022-08-01T12:19:23;95240.81;;;27.80;41.11
20624;BME280;10471;42.736;23.346;2022-08-01T12:22:08;95256.31;;;28.03;41.07
20624;BME280;10471;42.736;23.346;2022-08-01T12:24:35;95256.69;;;27.71;40.27
20624;BME280;10471;42.736;23.346;2022-08-01T12:27:00;95246.25;;;27.80;41.33
20624;BME280;10471;42.736;23.346;2022-08-01T12:31:57;95250.13;;;28.06;39.42
20624;BME280;10471;42.736;23.346;2022-08-01T12:34:27;95259.41;;;28.19;40.41
20624;BME280;10471;42.736;23.346;2022-08-01T12:36:55;95257.09;;;28.07;40.36
20624;BME280;10471;42.736;23.346;2022-08-01T12:39:21;95252.47;;;28.18;40.18
20624;BME280;10471;42.736;23.346;2022-08-01T12:41:46;95256.31;;;28.42;39.76
20624;BME280;10471;42.736;23.346;2022-08-01T12:44:15;95252.41;;;28.50;38.81
20624;BME280;10471;42.736;23.346;2022-08-01T12:46:41;95242.66;;;28.66;39.50
20624;BME280;10471;42.736;23.346;2022-08-01T12:49:07;95247.69;;;28.85;39.42
20624;BME280;10471;42.736;23.346;2022-08-01T12:51:33;95239.91;;;28.87;38.98
20624;BME280;10471;42.736;23.346;2022-08-01T12:53:59;95232.75;;;29.27;38.76
20624;BME280;10471;42.736;23.346;2022-08-01T12:56:34;95234.28;;;29.39;38.81
20624;BME280;10471;42.736;23.346;2022-08-01T12:58:59;95231.00;;;29.65;37.79
20624;BME280;10471;42.736;23.346;2022-08-01T13:01:26;95221.13;;;29.85;37.99
20624;BME280;10471;42.736;23.346;2022-08-01T13:04:00;95231.63;;;29.89;38.89
20624;BME280;10471;42.736;23.346;2022-08-01T13:06:28;95232.59;;;29.59;38.16
20624;BME280;10471;42.736;23.346;2022-08-01T13:08:54;95241.72;;;29.17;37.84
20624;BME280;10471;42.736;23.346;2022-08-01T13:11:19;95236.75;;;29.06;38.13
20624;BME280;10471;42.736;23.346;2022-08-01T13:13:47;95234.78;;;29.74;38.31
20624;BME280;10471;42.736;23.346;2022-08-01T13:16:14;95234.00;;;29.77;37.26
20624;BME280;10471;42.736;23.346;2022-08-01T13:18:40;95220.97;;;30.09;37.62
20624;BME280;10471;42.736;23.346;2022-08-01T13:21:13;95224.56;;;29.95;37.08
20624;BME280;10471;42.736;23.346;2022-08-01T13:23:41;95225.75;;;30.38;37.20